sensor_id;sensor_type;location;lat;lon;timestamp;temperature;humidity
40670;DHT22;26355;45.528;9.234;2022-11-10T00:00:33;15.20;99.90
40670;DHT22;26355;45.528;9.234;2022-11-10T00:03:04;16.10;99.90
40670;DHT22;26355;45.528;9.234;2022-11-10T00:05:30;15.20;99.90
40670;DHT22;26355;45.528;9.234;2022-11-10T00:07:56;15.10;99.90
40670;DHT22;26355;45.528;9.234;2022-11-10T00:10:22;15.10;99.90
40670;DHT22;26355;45.528;9.234;2022-11-10T00:12:47;15.20;99.90
40670;DHT22;26355;45.528;9.234;2022-11-10T00:15:13;15.10;99.90
40670;DHT22;26355;45.528;9.234;2022-11-10T00:18:00;15.20;99.90
40670;DHT22;26355;45.528;9.234;2022-11-10T00:20:26;15.10;99.90
40670;DHT22;26355;45.528;9.234;2022-11-10T00:22:54;15.10;99.90
40670;DHT22;26355;45.528;9.234;2022-11-10T00:25:20;15.10;99.90
40670;DHT22;26355;45.528;9.234;2022-11-10T00:27:45;15.10;99.90
40670;DHT22;26355;45.528;9.234;2022-11-10T00:30:11;15.00;99.90
40670;DHT22;26355;45.528;9.234;2022-11-10T00:32:37;15.10;99.90
40670;DHT22;26355;45.528;9.234;2022-11-10T00:35:03;15.10;99.90
40670;DHT22;26355;45.528;9.234;2022-11-10T00:37:28;15.10;99.90
40670;DHT22;26355;45.528;9.234;2022-11-10T00:39:54;15.10;99.90
40670;DHT22;26355;45.528;9.234;2022-11-10T00:42:20;15.10;99.90
40670;DHT22;26355;45.528;9.234;2022-11-10T00:44:45;15.10;99.90
40670;DHT22;26355;45.528;9.234;2022-11-10T00:47:11;15.20;99.90
40670;DHT22;26355;45.528;9.234;2022-11-10T00:49:37;15.20;99.90
40670;DHT22;26355;45.528;9.234;2022-11-10T00:52:03;15.10;99.90
40670;DHT22;26355;45.528;9.234;2022-11-10T00:54:29;15.10;99.90
40670;DHT22;26355;45.528;9.234;2022-11-10T00:56:54;15.10;99.90
40670;DHT22;26355;45.528;9.234;2022-11-10T00:59:20;15.10;99.90
40670;DHT22;26355;45.528;9.234;2022-11-10T01:01:46;15.60;99.90
40670;DHT22;26355;45.528;9.234;2022-11-10T01:04:11;15.80;99.90
40670;DHT22;26355;45.528;9.234;2022-11-10T01:06:37;15.20;99.90
40670;DHT22;26355;45.528;9.234;2022-11-10T01:09:03;15.20;99.90
40670;DHT22;26355;45.528;9.234;2022-11-10T01:11:29;15.10;99.90
40670;DHT22;26355;45.528;9.234;2022-11-10T01:14:30;16.10;99.90
40670;DHT22;26355;45.528;9.234;2022-11-10T01:16:56;15.20;99.90
40670;DHT22;26355;45.528;9.234;2022-11-10T01:19:21;15.20;99.90
40670;DHT22;26355;45.528;9.234;2022-11-10T01:21:49;15.20;99.90
40670;DHT22;26355;45.528;9.234;2022-11-10T01:24:18;15.20;99.90
40670;DHT22;26355;45.528;9.234;2022-11-10T01:26:45;15.20;99.90
40670;DHT22;26355;45.528;9.234;2022-11-10T01:29:10;15.20;99.90
40670;DHT22;26355;45.528;9.234;2022-11-10T01:31:36;16.30;99.90
40670;DHT22;26355;45.528;9.234;2022-11-10T01:34:02;15.40;99.90
40670;DHT22;26355;45.528;9.234;2022-11-10T01:36:27;15.30;99.90
40670;DHT22;26355;45.528;9.234;2022-11-10T01:38:53;15.20;99.90
40670;DHT22;26355;45.528;9.234;2022-11-10T01:41:18;15.40;99.90
40670;DHT22;26355;45.528;9.234;2022-11-10T01:43:44;15.40;99.90
40670;DHT22;26355;45.528;9.234;2022-11-10T01:46:11;15.30;99.90
40670;DHT22;26355;45.528;9.234;2022-11-10T01:48:48;15.30;99.90
40670;DHT22;26355;45.528;9.234;2022-11-10T01:54:11;15.10;99.90
40670;DHT22;26355;45.528;9.234;2022-11-10T01:56:49;15.10;99.90
40670;DHT22;26355;45.528;9.234;2022-11-10T01:59:19;15.00;99.90
40670;DHT22;26355;45.528;9.234;2022-11-10T02:01:47;15.00;99.90
40670;DHT22;26355;45.528;9.234;2022-11-10T02:04:16;14.90;99.90
40670;DHT22;26355;45.528;9.234;2022-11-10T02:06:44;14.10;99.90
40670;DHT22;26355;45.528;9.234;2022-11-10T02:09:11;15.00;99.90
40670;DHT22;26355;45.528;9.234;2022-11-10T02:11:37;15.00;99.90
40670;DHT22;26355;45.528;9.234;2022-11-10T02:14:04;15.10;99.90
40670;DHT22;26355;45.528;9.234;2022-11-10T02:16:30;15.10;99.90
40670;DHT22;26355;45.528;9.234;2022-11-10T02:18:56;15.00;99.90
40670;DHT22;26355;45.528;9.234;2022-11-10T02:21:22;15.10;99.90
40670;DHT22;26355;45.528;9.234;2022-11-10T02:23:53;14.90;99.90
40670;DHT22;26355;45.528;9.234;2022-11-10T02:26:24;14.80;99.90
40670;DHT22;26355;45.528;9.234;2022-11-10T02:28:52;15.00;99.90
40670;DHT22;26355;45.528;9.234;2022-11-10T02:31:17;14.90;99.90
40670;DHT22;26355;45.528;9.234;2022-11-10T02:33:43;14.90;99.90
40670;DHT22;26355;45.528;9.234;2022-11-10T02:36:09;14.90;99.90
40670;DHT22;26355;45.528;9.234;2022-11-10T02:38:35;14.90;99.90
40670;DHT22;26355;45.528;9.234;2022-11-10T02:41:00;14.90;99.90
40670;DHT22;26355;45.528;9.234;2022-11-10T02:43:26;14.90;99.90
40670;DHT22;26355;45.528;9.234;2022-11-10T02:45:53;14.90;99.90
40670;DHT22;26355;45.528;9.234;2022-11-10T02:48:18;14.90;99.90
40670;DHT22;26355;45.528;9.234;2022-11-10T02:50:44;14.90;99.90
40670;DHT22;26355;45.528;9.234;2022-11-10T02:53:10;15.00;99.90
40670;DHT22;26355;45.528;9.234;2022-11-10T02:55:36;15.00;99.90
40670;DHT22;26355;45.528;9.234;2022-11-10T02:58:02;14.60;99.90
40670;DHT22;26355;45.528;9.234;2022-11-10T03:00:28;15.20;99.90
40670;DHT22;26355;45.528;9.234;2022-11-10T03:02:57;15.00;99.90
40670;DHT22;26355;45.528;9.234;2022-11-10T03:05:23;15.30;99.90
40670;DHT22;26355;45.528;9.234;2022-11-10T03:07:57;15.00;99.90
40670;DHT22;26355;45.528;9.234;2022-11-10T03:10:23;15.00;99.90
40670;DHT22;26355;45.528;9.234;2022-11-10T03:12:56;14.90;99.90
40670;DHT22;26355;45.528;9.234;2022-11-10T03:15:22;15.00;99.90
40670;DHT22;26355;45.528;9.234;2022-11-10T03:17:48;15.00;99.90
40670;DHT22;26355;45.528;9.234;2022-11-10T03:20:14;15.00;99.90
40670;DHT22;26355;45.528;9.234;2022-11-10T03:22:40;15.00;99.90
40670;DHT22;26355;45.528;9.234;2022-11-10T03:25:07;15.00;99.90
40670;DHT22;26355;45.528;9.234;2022-11-10T03:27:33;15.10;99.90
40670;DHT22;26355;45.528;9.234;2022-11-10T03:29:58;15.00;99.90
40670;DHT22;26355;45.528;9.234;2022-11-10T03:32:24;15.00;99.90
40670;DHT22;26355;45.528;9.234;2022-11-10T03:34:49;14.90;99.90
40670;DHT22;26355;45.528;9.234;2022-11-10T03:37:15;15.00;99.90
40670;DHT22;26355;45.528;9.234;2022-11-10T03:39:41;15.00;99.90
40670;DHT22;26355;45.528;9.234;2022-11-10T03:42:06;15.00;99.90
40670;DHT22;26355;45.528;9.234;2022-11-10T03:44:32;15.00;99.90
40670;DHT22;26355;45.528;9.234;2022-11-10T03:46:57;15.00;99.90
40670;DHT22;26355;45.528;9.234;2022-11-10T03:49:23;15.10;99.90
40670;DHT22;26355;45.528;9.234;2022-11-10T03:51:49;15.00;99.90
40670;DHT22;26355;45.528;9.234;2022-11-10T03:54:14;15.00;99.90
40670;DHT22;26355;45.528;9.234;2022-11-10T03:56:40;15.50;99.90
40670;DHT22;26355;45.528;9.234;2022-11-10T03:59:05;15.00;99.90
40670;DHT22;26355;45.528;9.234;2022-11-10T04:01:31;15.10;99.90
40670;DHT22;26355;45.528;9.234;2022-11-10T04:03:57;15.00;99.90
40670;DHT22;26355;45.528;9.234;2022-11-10T04:06:25;15.00;99.90
40670;DHT22;26355;45.528;9.234;2022-11-10T04:09:10;15.10;99.90
40670;DHT22;26355;45.528;9.234;2022-11-10T04:11:35;15.10;99.90
40670;DHT22;26355;45.528;9.234;2022-11-10T04:14:20;15.10;99.90
40670;DHT22;26355;45.528;9.234;2022-11-10T04:17:03;15.00;99.90
40670;DHT22;26355;45.528;9.234;2022-11-10T04:19:29;15.10;99.90
40670;DHT22;26355;45.528;9.234;2022-11-10T04:21:55;14.90;99.90
40670;DHT22;26355;45.528;9.234;2022-11-10T04:24:21;15.80;99.90
40670;DHT22;26355;45.528;9.234;2022-11-10T04:26:47;14.80;99.90
40670;DHT22;26355;45.528;9.234;2022-11-10T04:29:16;14.80;99.90
40670;DHT22;26355;45.528;9.234;2022-11-10T04:31:42;14.80;99.90
40670;DHT22;26355;45.528;9.234;2022-11-10T04:34:10;14.90;99.90
40670;DHT22;26355;45.528;9.234;2022-11-10T04:36:38;14.80;99.90
40670;DHT22;26355;45.528;9.234;2022-11-10T04:39:05;14.80;99.90
40670;DHT22;26355;45.528;9.234;2022-11-10T04:41:31;14.80;99.90
40670;DHT22;26355;45.528;9.234;2022-11-10T04:43:58;14.90;99.90
40670;DHT22;26355;45.528;9.234;2022-11-10T04:46:28;14.80;99.90
40670;DHT22;26355;45.528;9.234;2022-11-10T04:48:55;14.90;99.90
40670;DHT22;26355;45.528;9.234;2022-11-10T04:51:23;14.90;99.90
40670;DHT22;26355;45.528;9.234;2022-11-10T04:53:49;14.80;99.90
40670;DHT22;26355;45.528;9.234;2022-11-10T04:56:19;15.60;99.90
40670;DHT22;26355;45.528;9.234;2022-11-10T04:58:46;15.00;99.90
40670;DHT22;26355;45.528;9.234;2022-11-10T05:01:14;14.80;99.90
40670;DHT22;26355;45.528;9.234;2022-11-10T05:03:40;14.80;99.90
40670;DHT22;26355;45.528;9.234;2022-11-10T05:06:07;14.80;99.90
40670;DHT22;26355;45.528;9.234;2022-11-10T05:08:33;14.90;99.90
40670;DHT22;26355;45.528;9.234;2022-11-10T05:10:58;14.80;99.90
40670;DHT22;26355;45.528;9.234;2022-11-10T05:13:24;14.90;99.90
40670;DHT22;26355;45.528;9.234;2022-11-10T05:15:49;14.90;99.90
40670;DHT22;26355;45.528;9.234;2022-11-10T05:18:16;14.90;99.90
40670;DHT22;26355;45.528;9.234;2022-11-10T05:20:42;15.00;99.90
40670;DHT22;26355;45.528;9.234;2022-11-10T05:23:08;14.90;99.90
40670;DHT22;26355;45.528;9.234;2022-11-10T05:25:52;14.90;99.90
40670;DHT22;26355;45.528;9.234;2022-11-10T05:28:18;15.00;99.90
40670;DHT22;26355;45.528;9.234;2022-11-10T05:30:43;15.00;99.90
40670;DHT22;26355;45.528;9.234;2022-11-10T05:33:09;15.10;99.90
40670;DHT22;26355;45.528;9.234;2022-11-10T05:35:35;15.30;99.90
40670;DHT22;26355;45.528;9.234;2022-11-10T05:38:02;15.20;99.90
40670;DHT22;26355;45.528;9.234;2022-11-10T05:40:28;15.30;99.90
40670;DHT22;26355;45.528;9.234;2022-11-10T05:42:54;15.40;99.90
40670;DHT22;26355;45.528;9.234;2022-11-10T05:45:21;15.40;99.90
40670;DHT22;26355;45.528;9.234;2022-11-10T05:47:48;15.50;99.90
40670;DHT22;26355;45.528;9.234;2022-11-10T05:50:14;15.60;99.90
40670;DHT22;26355;45.528;9.234;2022-11-10T05:52:43;15.70;99.90
40670;DHT22;26355;45.528;9.234;2022-11-10T05:55:09;15.70;99.90
40670;DHT22;26355;45.528;9.234;2022-11-10T05:57:35;15.80;99.90
40670;DHT22;26355;45.528;9.234;2022-11-10T06:00:02;15.90;99.90
40670;DHT22;26355;45.528;9.234;2022-11-10T06:02:28;15.80;99.90
40670;DHT22;26355;45.528;9.234;2022-11-10T06:04:53;16.30;99.90
40670;DHT22;26355;45.528;9.234;2022-11-10T06:07:19;16.00;99.90
40670;DHT22;26355;45.528;9.234;2022-11-10T06:09:45;16.00;99.90
40670;DHT22;26355;45.528;9.234;2022-11-10T06:12:12;16.00;99.90
40670;DHT22;26355;45.528;9.234;2022-11-10T06:14:38;15.90;99.90
40670;DHT22;26355;45.528;9.234;2022-11-10T06:17:04;16.00;99.90
40670;DHT22;26355;45.528;9.234;2022-11-10T06:19:30;16.00;99.90
40670;DHT22;26355;45.528;9.234;2022-11-10T06:21:55;16.00;99.90
40670;DHT22;26355;45.528;9.234;2022-11-10T06:24:21;16.00;99.90
40670;DHT22;26355;45.528;9.234;2022-11-10T06:26:47;16.00;99.90
40670;DHT22;26355;45.528;9.234;2022-11-10T06:29:12;16.00;99.90
40670;DHT22;26355;45.528;9.234;2022-11-10T06:31:38;16.00;99.90
40670;DHT22;26355;45.528;9.234;2022-11-10T06:34:04;16.00;99.90
40670;DHT22;26355;45.528;9.234;2022-11-10T06:36:29;16.00;99.90
40670;DHT22;26355;45.528;9.234;2022-11-10T06:38:55;16.00;99.90
40670;DHT22;26355;45.528;9.234;2022-11-10T06:41:20;16.10;99.90
40670;DHT22;26355;45.528;9.234;2022-11-10T06:43:46;15.90;99.90
40670;DHT22;26355;45.528;9.234;2022-11-10T06:46:12;15.90;99.90
40670;DHT22;26355;45.528;9.234;2022-11-10T06:48:37;16.00;99.90
40670;DHT22;26355;45.528;9.234;2022-11-10T06:51:04;16.00;99.90
40670;DHT22;26355;45.528;9.234;2022-11-10T06:53:30;16.00;99.90
40670;DHT22;26355;45.528;9.234;2022-11-10T06:55:56;15.90;99.90
40670;DHT22;26355;45.528;9.234;2022-11-10T06:58:21;15.80;99.90
40670;DHT22;26355;45.528;9.234;2022-11-10T07:00:47;15.90;99.90
40670;DHT22;26355;45.528;9.234;2022-11-10T07:03:14;15.90;99.90
40670;DHT22;26355;45.528;9.234;2022-11-10T07:05:40;15.70;99.90
40670;DHT22;26355;45.528;9.234;2022-11-10T07:08:11;15.80;99.90
40670;DHT22;26355;45.528;9.234;2022-11-10T07:10:44;15.70;99.90
40670;DHT22;26355;45.528;9.234;2022-11-10T07:13:10;15.70;99.90
40670;DHT22;26355;45.528;9.234;2022-11-10T07:15:36;15.70;99.90
40670;DHT22;26355;45.528;9.234;2022-11-10T07:18:03;15.80;99.90
40670;DHT22;26355;45.528;9.234;2022-11-10T07:20:32;15.80;99.90
40670;DHT22;26355;45.528;9.234;2022-11-10T07:23:00;15.80;99.90
40670;DHT22;26355;45.528;9.234;2022-11-10T07:25:27;15.70;99.90
40670;DHT22;26355;45.528;9.234;2022-11-10T07:27:58;15.70;99.90
40670;DHT22;26355;45.528;9.234;2022-11-10T07:30:25;15.70;99.90
40670;DHT22;26355;45.528;9.234;2022-11-10T07:33:17;15.80;99.90
40670;DHT22;26355;45.528;9.234;2022-11-10T07:35:48;15.80;99.90
40670;DHT22;26355;45.528;9.234;2022-11-10T07:38:14;15.70;99.90
40670;DHT22;26355;45.528;9.234;2022-11-10T07:40:40;15.70;99.90
40670;DHT22;26355;45.528;9.234;2022-11-10T07:43:06;15.60;99.90
40670;DHT22;26355;45.528;9.234;2022-11-10T07:45:32;15.70;99.90
40670;DHT22;26355;45.528;9.234;2022-11-10T07:48:02;15.90;99.90
40670;DHT22;26355;45.528;9.234;2022-11-10T07:50:28;15.70;99.90
40670;DHT22;26355;45.528;9.234;2022-11-10T07:53:12;15.70;99.90
40670;DHT22;26355;45.528;9.234;2022-11-10T07:55:39;15.60;99.90
40670;DHT22;26355;45.528;9.234;2022-11-10T07:58:05;15.70;99.90
40670;DHT22;26355;45.528;9.234;2022-11-10T08:00:31;15.90;99.90
40670;DHT22;26355;45.528;9.234;2022-11-10T08:03:05;15.70;99.90
40670;DHT22;26355;45.528;9.234;2022-11-10T08:05:31;15.60;99.90
40670;DHT22;26355;45.528;9.234;2022-11-10T08:07:57;15.70;99.90
40670;DHT22;26355;45.528;9.234;2022-11-10T08:10:25;15.70;99.90
40670;DHT22;26355;45.528;9.234;2022-11-10T08:12:59;15.60;99.90
40670;DHT22;26355;45.528;9.234;2022-11-10T08:15:26;15.80;99.90
40670;DHT22;26355;45.528;9.234;2022-11-10T08:18:05;15.70;99.90
40670;DHT22;26355;45.528;9.234;2022-11-10T08:20:31;15.70;99.90
40670;DHT22;26355;45.528;9.234;2022-11-10T08:22:59;15.70;99.90
40670;DHT22;26355;45.528;9.234;2022-11-10T08:25:28;15.70;99.90
40670;DHT22;26355;45.528;9.234;2022-11-10T08:27:59;15.70;99.90
40670;DHT22;26355;45.528;9.234;2022-11-10T08:30:25;15.70;99.90
40670;DHT22;26355;45.528;9.234;2022-11-10T08:32:56;15.70;99.90
40670;DHT22;26355;45.528;9.234;2022-11-10T08:35:24;15.70;99.90
40670;DHT22;26355;45.528;9.234;2022-11-10T08:37:50;15.80;99.90
40670;DHT22;26355;45.528;9.234;2022-11-10T08:40:17;15.60;99.90
40670;DHT22;26355;45.528;9.234;2022-11-10T08:42:43;15.50;99.90
40670;DHT22;26355;45.528;9.234;2022-11-10T08:45:09;15.50;99.90
40670;DHT22;26355;45.528;9.234;2022-11-10T08:47:35;15.50;99.90
40670;DHT22;26355;45.528;9.234;2022-11-10T08:50:00;15.60;99.90
40670;DHT22;26355;45.528;9.234;2022-11-10T08:52:26;15.70;99.90
40670;DHT22;26355;45.528;9.234;2022-11-10T08:54:52;15.80;99.90
40670;DHT22;26355;45.528;9.234;2022-11-10T08:57:17;15.70;99.90
40670;DHT22;26355;45.528;9.234;2022-11-10T08:59:43;15.80;99.90
40670;DHT22;26355;45.528;9.234;2022-11-10T09:02:09;15.70;99.90
40670;DHT22;26355;45.528;9.234;2022-11-10T09:04:34;15.80;99.90
40670;DHT22;26355;45.528;9.234;2022-11-10T09:07:00;15.80;99.90
40670;DHT22;26355;45.528;9.234;2022-11-10T09:09:26;15.80;99.90
40670;DHT22;26355;45.528;9.234;2022-11-10T09:11:52;15.70;99.90
40670;DHT22;26355;45.528;9.234;2022-11-10T09:14:17;16.30;99.90
40670;DHT22;26355;45.528;9.234;2022-11-10T09:16:43;15.70;99.90
40670;DHT22;26355;45.528;9.234;2022-11-10T09:19:09;15.60;99.90
40670;DHT22;26355;45.528;9.234;2022-11-10T09:21:34;15.70;99.90
40670;DHT22;26355;45.528;9.234;2022-11-10T09:24:00;15.70;99.90
40670;DHT22;26355;45.528;9.234;2022-11-10T09:26:25;15.80;99.90
40670;DHT22;26355;45.528;9.234;2022-11-10T09:28:51;15.80;99.90
40670;DHT22;26355;45.528;9.234;2022-11-10T09:31:17;15.90;99.90
40670;DHT22;26355;45.528;9.234;2022-11-10T09:33:43;15.90;99.90
40670;DHT22;26355;45.528;9.234;2022-11-10T09:36:08;16.00;99.90
40670;DHT22;26355;45.528;9.234;2022-11-10T09:38:34;15.90;99.90
40670;DHT22;26355;45.528;9.234;2022-11-10T09:41:09;15.90;99.90
40670;DHT22;26355;45.528;9.234;2022-11-10T09:46:28;16.00;99.90
40670;DHT22;26355;45.528;9.234;2022-11-10T09:49:05;16.00;99.90
40670;DHT22;26355;45.528;9.234;2022-11-10T09:51:37;16.00;99.90
40670;DHT22;26355;45.528;9.234;2022-11-10T09:56:37;16.00;99.90
40670;DHT22;26355;45.528;9.234;2022-11-10T09:59:13;15.90;99.90
40670;DHT22;26355;45.528;9.234;2022-11-10T10:01:47;16.50;99.90
40670;DHT22;26355;45.528;9.234;2022-11-10T10:07:17;16.00;99.90
40670;DHT22;26355;45.528;9.234;2022-11-10T10:10:01;16.00;99.90
40670;DHT22;26355;45.528;9.234;2022-11-10T10:23:35;16.00;99.90
40670;DHT22;26355;45.528;9.234;2022-11-10T10:26:02;16.00;99.90
40670;DHT22;26355;45.528;9.234;2022-11-10T10:28:32;16.00;99.90
40670;DHT22;26355;45.528;9.234;2022-11-10T10:33:38;16.00;99.90
40670;DHT22;26355;45.528;9.234;2022-11-10T10:36:08;16.00;99.90
40670;DHT22;26355;45.528;9.234;2022-11-10T10:38:39;15.80;99.90
40670;DHT22;26355;45.528;9.234;2022-11-10T10:41:22;15.80;99.90
40670;DHT22;26355;45.528;9.234;2022-11-10T10:43:50;15.80;99.90
40670;DHT22;26355;45.528;9.234;2022-11-10T10:46:16;16.20;99.90
40670;DHT22;26355;45.528;9.234;2022-11-10T10:48:44;15.90;99.90
40670;DHT22;26355;45.528;9.234;2022-11-10T10:51:29;15.90;99.90
40670;DHT22;26355;45.528;9.234;2022-11-10T10:53:55;15.80;99.90
40670;DHT22;26355;45.528;9.234;2022-11-10T10:56:25;16.00;99.90
40670;DHT22;26355;45.528;9.234;2022-11-10T10:58:55;16.10;99.90
40670;DHT22;26355;45.528;9.234;2022-11-10T11:01:30;16.00;99.90
40670;DHT22;26355;45.528;9.234;2022-11-10T11:03:56;16.00;99.90
40670;DHT22;26355;45.528;9.234;2022-11-10T11:06:24;16.40;99.90
40670;DHT22;26355;45.528;9.234;2022-11-10T11:09:14;16.00;99.90
40670;DHT22;26355;45.528;9.234;2022-11-10T11:11:42;16.00;99.90
40670;DHT22;26355;45.528;9.234;2022-11-10T11:14:24;16.10;99.90
40670;DHT22;26355;45.528;9.234;2022-11-10T11:16:54;16.10;99.90
40670;DHT22;26355;45.528;9.234;2022-11-10T11:19:25;15.50;99.90
40670;DHT22;26355;45.528;9.234;2022-11-10T11:25:16;16.10;99.90
40670;DHT22;26355;45.528;9.234;2022-11-10T11:27:47;16.10;99.90
40670;DHT22;26355;45.528;9.234;2022-11-10T11:30:21;16.10;99.90
40670;DHT22;26355;45.528;9.234;2022-11-10T11:38:13;16.20;99.90
40670;DHT22;26355;45.528;9.234;2022-11-10T11:40:48;16.20;99.90
40670;DHT22;26355;45.528;9.234;2022-11-10T11:52:32;16.60;99.90
40670;DHT22;26355;45.528;9.234;2022-11-10T12:07:01;16.80;99.90
40670;DHT22;26355;45.528;9.234;2022-11-10T12:12:22;16.80;99.90
40670;DHT22;26355;45.528;9.234;2022-11-10T12:17:52;16.90;99.90
40670;DHT22;26355;45.528;9.234;2022-11-10T12:25:53;16.70;99.90
40670;DHT22;26355;45.528;9.234;2022-11-10T12:28:31;16.60;99.90
40670;DHT22;26355;45.528;9.234;2022-11-10T12:31:01;16.50;99.90
40670;DHT22;26355;45.528;9.234;2022-11-10T12:33:37;16.60;99.90
40670;DHT22;26355;45.528;9.234;2022-11-10T12:36:10;16.60;99.90
40670;DHT22;26355;45.528;9.234;2022-11-10T12:41:15;16.60;99.90
40670;DHT22;26355;45.528;9.234;2022-11-10T12:44:22;16.80;99.90
40670;DHT22;26355;45.528;9.234;2022-11-10T12:46:52;16.80;99.90
40670;DHT22;26355;45.528;9.234;2022-11-10T12:49:46;16.90;99.90
40670;DHT22;26355;45.528;9.234;2022-11-10T12:52:26;16.90;99.90
40670;DHT22;26355;45.528;9.234;2022-11-10T12:54:53;16.90;99.90
40670;DHT22;26355;45.528;9.234;2022-11-10T12:57:24;17.00;99.90
40670;DHT22;26355;45.528;9.234;2022-11-10T12:59:58;17.10;99.90
40670;DHT22;26355;45.528;9.234;2022-11-10T13:02:36;17.20;99.90
40670;DHT22;26355;45.528;9.234;2022-11-10T13:07:45;17.40;99.90
40670;DHT22;26355;45.528;9.234;2022-11-10T13:15:43;17.50;99.90
40670;DHT22;26355;45.528;9.234;2022-11-10T13:18:11;17.10;99.90
40670;DHT22;26355;45.528;9.234;2022-11-10T13:20:50;17.50;99.90
40670;DHT22;26355;45.528;9.234;2022-11-10T13:23:30;17.50;99.90
40670;DHT22;26355;45.528;9.234;2022-11-10T13:26:47;17.40;99.90
40670;DHT22;26355;45.528;9.234;2022-11-10T13:29:01;17.40;99.90
40670;DHT22;26355;45.528;9.234;2022-11-10T13:36:47;17.50;99.90
40670;DHT22;26355;45.528;9.234;2022-11-10T13:39:25;17.30;99.90
40670;DHT22;26355;45.528;9.234;2022-11-10T13:44:31;17.10;99.90
40670;DHT22;26355;45.528;9.234;2022-11-10T13:47:02;17.20;99.90
40670;DHT22;26355;45.528;9.234;2022-11-10T13:55:25;17.20;99.90
40670;DHT22;26355;45.528;9.234;2022-11-10T13:58:02;17.10;99.90
40670;DHT22;26355;45.528;9.234;2022-11-10T14:00:31;17.00;99.90
40670;DHT22;26355;45.528;9.234;2022-11-10T14:05:59;17.10;99.90
40670;DHT22;26355;45.528;9.234;2022-11-10T14:08:38;17.10;99.90
40670;DHT22;26355;45.528;9.234;2022-11-10T14:11:33;17.20;99.90
40670;DHT22;26355;45.528;9.234;2022-11-10T14:14:19;17.10;99.90
40670;DHT22;26355;45.528;9.234;2022-11-10T14:16:46;17.10;99.90
40670;DHT22;26355;45.528;9.234;2022-11-10T14:19:34;17.20;99.90
40670;DHT22;26355;45.528;9.234;2022-11-10T14:22:19;17.10;99.90
40670;DHT22;26355;45.528;9.234;2022-11-10T14:25:05;17.20;99.90
40670;DHT22;26355;45.528;9.234;2022-11-10T14:27:36;17.20;99.90
40670;DHT22;26355;45.528;9.234;2022-11-10T14:30:22;17.30;99.90
40670;DHT22;26355;45.528;9.234;2022-11-10T14:32:57;17.20;99.90
40670;DHT22;26355;45.528;9.234;2022-11-10T14:35:29;17.10;99.90
40670;DHT22;26355;45.528;9.234;2022-11-10T14:38:03;17.10;99.90
40670;DHT22;26355;45.528;9.234;2022-11-10T14:40:29;17.10;99.90
40670;DHT22;26355;45.528;9.234;2022-11-10T14:42:56;17.00;99.90
40670;DHT22;26355;45.528;9.234;2022-11-10T14:45:22;17.00;99.90
40670;DHT22;26355;45.528;9.234;2022-11-10T14:47:57;17.00;99.90
40670;DHT22;26355;45.528;9.234;2022-11-10T14:50:26;16.90;99.90
40670;DHT22;26355;45.528;9.234;2022-11-10T14:53:11;17.00;99.90
40670;DHT22;26355;45.528;9.234;2022-11-10T14:55:42;17.00;99.90
40670;DHT22;26355;45.528;9.234;2022-11-10T14:58:30;17.00;99.90
40670;DHT22;26355;45.528;9.234;2022-11-10T15:00:57;17.00;99.90
40670;DHT22;26355;45.528;9.234;2022-11-10T15:03:40;16.90;99.90
40670;DHT22;26355;45.528;9.234;2022-11-10T15:06:09;16.90;99.90
40670;DHT22;26355;45.528;9.234;2022-11-10T15:08:37;16.90;99.90
40670;DHT22;26355;45.528;9.234;2022-11-10T15:11:03;16.70;99.90
40670;DHT22;26355;45.528;9.234;2022-11-10T15:16:23;16.70;99.90
40670;DHT22;26355;45.528;9.234;2022-11-10T15:18:50;16.80;99.90
40670;DHT22;26355;45.528;9.234;2022-11-10T15:24:58;16.70;99.90
40670;DHT22;26355;45.528;9.234;2022-11-10T15:31:22;16.90;99.90
40670;DHT22;26355;45.528;9.234;2022-11-10T15:34:44;16.60;99.90
40670;DHT22;26355;45.528;9.234;2022-11-10T15:37:25;16.60;99.90
40670;DHT22;26355;45.528;9.234;2022-11-10T15:52:19;16.50;99.90
40670;DHT22;26355;45.528;9.234;2022-11-10T15:54:45;16.50;99.90
40670;DHT22;26355;45.528;9.234;2022-11-10T15:57:13;16.50;99.90
40670;DHT22;26355;45.528;9.234;2022-11-10T15:59:40;16.50;99.90
40670;DHT22;26355;45.528;9.234;2022-11-10T16:02:21;16.50;99.90
40670;DHT22;26355;45.528;9.234;2022-11-10T16:04:48;16.50;99.90
40670;DHT22;26355;45.528;9.234;2022-11-10T16:07:14;16.60;99.90
40670;DHT22;26355;45.528;9.234;2022-11-10T16:09:40;16.50;99.90
40670;DHT22;26355;45.528;9.234;2022-11-10T16:12:16;16.70;99.90
40670;DHT22;26355;45.528;9.234;2022-11-10T16:14:46;16.70;99.90
40670;DHT22;26355;45.528;9.234;2022-11-10T16:17:13;16.80;99.90
40670;DHT22;26355;45.528;9.234;2022-11-10T16:19:39;16.70;99.90
40670;DHT22;26355;45.528;9.234;2022-11-10T16:22:04;16.70;99.90
40670;DHT22;26355;45.528;9.234;2022-11-10T16:24:30;16.70;99.90
40670;DHT22;26355;45.528;9.234;2022-11-10T16:26:55;16.70;99.90
40670;DHT22;26355;45.528;9.234;2022-11-10T16:29:21;16.60;99.90
40670;DHT22;26355;45.528;9.234;2022-11-10T16:31:48;16.60;99.90
40670;DHT22;26355;45.528;9.234;2022-11-10T16:34:14;16.60;99.90
40670;DHT22;26355;45.528;9.234;2022-11-10T16:36:40;16.60;99.90
40670;DHT22;26355;45.528;9.234;2022-11-10T16:39:12;16.70;99.90
40670;DHT22;26355;45.528;9.234;2022-11-10T16:41:38;16.60;99.90
40670;DHT22;26355;45.528;9.234;2022-11-10T16:44:14;16.60;99.90
40670;DHT22;26355;45.528;9.234;2022-11-10T16:46:42;16.40;99.90
40670;DHT22;26355;45.528;9.234;2022-11-10T16:49:41;16.40;99.90
40670;DHT22;26355;45.528;9.234;2022-11-10T16:52:12;16.50;99.90
40670;DHT22;26355;45.528;9.234;2022-11-10T16:54:38;16.50;99.90
40670;DHT22;26355;45.528;9.234;2022-11-10T16:57:15;16.50;99.90
40670;DHT22;26355;45.528;9.234;2022-11-10T16:59:40;16.50;99.90
40670;DHT22;26355;45.528;9.234;2022-11-10T17:02:33;16.50;99.90
40670;DHT22;26355;45.528;9.234;2022-11-10T17:05:00;16.50;99.90
40670;DHT22;26355;45.528;9.234;2022-11-10T17:07:26;16.50;99.90
40670;DHT22;26355;45.528;9.234;2022-11-10T17:09:54;16.60;99.90
40670;DHT22;26355;45.528;9.234;2022-11-10T17:12:20;16.60;99.90
40670;DHT22;26355;45.528;9.234;2022-11-10T17:14:46;16.60;99.90
40670;DHT22;26355;45.528;9.234;2022-11-10T17:17:16;16.60;99.90
40670;DHT22;26355;45.528;9.234;2022-11-10T17:19:46;16.70;99.90
40670;DHT22;26355;45.528;9.234;2022-11-10T17:22:17;16.70;99.90
40670;DHT22;26355;45.528;9.234;2022-11-10T17:24:52;16.60;99.90
40670;DHT22;26355;45.528;9.234;2022-11-10T17:27:19;16.70;99.90
40670;DHT22;26355;45.528;9.234;2022-11-10T17:29:45;16.60;99.90
40670;DHT22;26355;45.528;9.234;2022-11-10T17:32:11;16.70;99.90
40670;DHT22;26355;45.528;9.234;2022-11-10T17:34:49;16.70;99.90
40670;DHT22;26355;45.528;9.234;2022-11-10T17:37:15;16.70;99.90
40670;DHT22;26355;45.528;9.234;2022-11-10T17:39:41;16.60;99.90